Time,TemperatureF,DewpointF,PressureIn,WindDirection,WindDirectionDegrees,WindSpeedMPH,WindSpeedGustMPH,Humidity,HourlyPrecipIn,Conditions,Clouds,dailyrainin,SolarRadiationWatts/m^2,SoftwareType,DateUTC
2013-02-16 00:02:00,39.0,39.0,-100.00,SSW,207,0.0,2.0,99,0.00,,,0.00,0.000000,,2013-02-16 05:02:00,
2013-02-16 00:32:00,37.0,37.0,-100.00,SSW,196,0.0,2.0,99,0.00,,,0.00,0.000000,,2013-02-16 05:32:00,
2013-02-16 00:42:00,37.0,37.0,-100.00,SSW,196,0.0,2.0,99,0.00,,,0.00,0.000000,,2013-02-16 05:42:00,
2013-02-16 00:52:00,37.0,37.0,-100.00,SSW,196,0.0,2.0,99,0.00,,,0.00,0.000000,,2013-02-16 05:52:00,
2013-02-16 01:02:00,37.0,37.0,-100.00,SSW,196,0.0,2.0,99,0.00,,,0.00,0.000000,,2013-02-16 06:02:00,
2013-02-16 01:22:00,36.0,36.0,-100.00,SW,231,0.0,1.0,100,0.00,,,0.00,0.000000,,2013-02-16 06:22:00,
2013-02-16 01:32:00,36.0,36.0,-100.00,SW,231,0.0,1.0,100,0.00,,,0.00,0.000000,,2013-02-16 06:32:00,
2013-02-16 01:42:00,36.0,36.0,-100.00,SW,231,0.0,1.0,100,0.00,,,0.00,0.000000,,2013-02-16 06:42:00,
2013-02-16 01:52:00,36.0,36.0,-100.00,SW,231,0.0,1.0,100,0.00,,,0.00,0.000000,,2013-02-16 06:52:00,
2013-02-16 02:02:00,36.0,36.0,-100.00,SW,231,0.0,1.0,100,0.00,,,0.00,0.000000,,2013-02-16 07:02:00,
2013-02-16 02:32:00,36.0,36.0,-100.00,SW,217,1.0,2.0,100,0.00,,,0.00,0.000000,,2013-02-16 07:32:00,
2013-02-16 02:42:00,36.0,36.0,-100.00,SW,217,1.0,2.0,100,0.00,,,0.00,0.000000,,2013-02-16 07:42:00,
2013-02-16 02:53:00,36.0,36.0,-100.00,SW,217,1.0,2.0,100,0.00,,,0.00,0.000000,,2013-02-16 07:53:00,
2013-02-16 03:01:00,36.0,36.0,-100.00,SW,217,1.0,2.0,100,0.00,,,0.00,0.000000,,2013-02-16 08:01:00,
2013-02-16 03:32:00,36.0,36.0,-100.00,SSW,201,1.0,1.0,100,0.00,,,0.00,0.000000,,2013-02-16 08:32:00,
2013-02-16 03:42:00,36.0,36.0,-100.00,SSW,201,1.0,1.0,100,0.00,,,0.00,0.000000,,2013-02-16 08:42:00,
2013-02-16 03:52:00,36.0,36.0,-100.00,SSW,201,1.0,1.0,100,0.00,,,0.00,0.000000,,2013-02-16 08:52:00,
2013-02-16 04:02:00,36.0,36.0,-100.00,SSW,201,1.0,1.0,100,0.00,,,0.00,0.000000,,2013-02-16 09:02:00,
2013-02-16 05:32:00,35.0,35.0,-100.00,SSW,202,1.0,3.0,100,-99.99,,,0.00,0.000000,,2013-02-16 10:32:00,
2013-02-16 05:42:00,35.0,35.0,-100.00,SSW,202,1.0,3.0,100,-99.99,,,0.00,0.000000,,2013-02-16 10:42:00,
2013-02-16 05:52:00,35.0,35.0,-100.00,SSW,202,1.0,3.0,100,-99.99,,,0.00,0.000000,,2013-02-16 10:52:00,
2013-02-16 06:02:00,35.0,35.0,-100.00,SSW,202,1.0,3.0,100,-99.99,,,0.00,0.000000,,2013-02-16 11:02:00,
2013-02-16 06:32:00,35.0,35.0,-100.00,NW,307,1.0,5.0,100,0.00,,,0.00,0.000000,,2013-02-16 11:32:00,
2013-02-16 06:42:00,35.0,35.0,-100.00,NW,307,1.0,5.0,100,0.00,,,0.00,0.000000,,2013-02-16 11:42:00,
2013-02-16 06:52:00,35.0,35.0,-100.00,NW,307,1.0,5.0,100,0.00,,,0.00,0.000000,,2013-02-16 11:52:00,
2013-02-16 07:02:00,35.0,35.0,-100.00,NW,307,1.0,5.0,100,0.00,,,0.00,0.000000,,2013-02-16 12:02:00,
2013-02-16 07:22:00,34.0,34.0,-100.00,WSW,237,1.0,2.0,100,0.00,,,0.00,0.000000,,2013-02-16 12:22:00,
2013-02-16 07:32:00,34.0,34.0,-100.00,WSW,237,1.0,2.0,100,0.00,,,0.00,0.000000,,2013-02-16 12:32:00,
2013-02-16 07:42:00,34.0,34.0,-100.00,WSW,237,1.0,2.0,100,0.00,,,0.00,0.000000,,2013-02-16 12:42:00,
2013-02-16 07:52:00,34.0,34.0,-100.00,WSW,237,1.0,2.0,100,0.00,,,0.00,0.000000,,2013-02-16 12:52:00,
2013-02-16 08:02:00,34.0,34.0,-100.00,WSW,237,1.0,2.0,100,0.00,,,0.00,0.000000,,2013-02-16 13:02:00,
2013-02-16 09:32:00,45.0,42.0,-100.00,North,3,4.0,7.0,89,-99.99,,,0.00,157.000000,,2013-02-16 14:32:00,
2013-02-16 09:42:00,45.0,42.0,-100.00,North,3,4.0,7.0,89,-99.99,,,0.00,157.000000,,2013-02-16 14:42:00,
2013-02-16 09:52:00,45.0,42.0,-100.00,North,3,4.0,7.0,89,-99.99,,,0.00,157.000000,,2013-02-16 14:52:00,
2013-02-16 10:02:00,45.0,42.0,-100.00,North,3,4.0,7.0,89,-99.99,,,0.00,157.000000,,2013-02-16 15:02:00,
2013-02-16 10:22:00,50.0,40.0,-100.00,NNE,32,4.0,9.0,69,0.00,,,0.00,319.000000,,2013-02-16 15:22:00,
2013-02-16 10:32:00,50.0,40.0,-100.00,NNE,32,4.0,9.0,69,0.00,,,0.00,319.000000,,2013-02-16 15:32:00,
2013-02-16 10:42:00,50.0,40.0,-100.00,NNE,32,4.0,9.0,69,0.00,,,0.00,319.000000,,2013-02-16 15:42:00,
2013-02-16 10:52:00,50.0,40.0,-100.00,NNE,32,4.0,9.0,69,0.00,,,0.00,319.000000,,2013-02-16 15:52:00,
2013-02-16 11:01:00,50.0,40.0,-100.00,NNE,32,4.0,9.0,69,0.00,,,0.00,319.000000,,2013-02-16 16:01:00,
2013-02-16 11:32:00,54.0,40.0,-100.00,North,3,5.0,10.0,58,0.00,,,0.00,622.000000,,2013-02-16 16:32:00,
2013-02-16 11:42:00,54.0,40.0,-100.00,North,3,5.0,10.0,58,0.00,,,0.00,622.000000,,2013-02-16 16:42:00,
2013-02-16 11:52:00,54.0,40.0,-100.00,North,3,5.0,10.0,58,0.00,,,0.00,622.000000,,2013-02-16 16:52:00,
2013-02-16 12:01:00,54.0,40.0,-100.00,North,3,5.0,10.0,58,0.00,,,0.00,622.000000,,2013-02-16 17:01:00,
2013-02-16 12:22:00,53.0,38.0,-100.00,NNW,334,5.0,12.0,57,0.00,,,0.00,372.000000,,2013-02-16 17:22:00,
2013-02-16 12:32:00,53.0,38.0,-100.00,NNW,334,5.0,12.0,57,0.00,,,0.00,372.000000,,2013-02-16 17:32:00,
2013-02-16 12:42:00,53.0,38.0,-100.00,NNW,334,5.0,12.0,57,0.00,,,0.00,372.000000,,2013-02-16 17:42:00,
2013-02-16 12:52:00,53.0,38.0,-100.00,NNW,334,5.0,12.0,57,0.00,,,0.00,372.000000,,2013-02-16 17:52:00,
2013-02-16 13:02:00,53.0,38.0,-100.00,NNW,334,5.0,12.0,57,0.00,,,0.00,372.000000,,2013-02-16 18:02:00,
2013-02-16 13:33:00,48.0,36.0,-100.00,NNW,330,6.0,14.0,62,0.00,,,0.00,255.000000,,2013-02-16 18:33:00,
2013-02-16 13:42:00,48.0,36.0,-100.00,NNW,330,6.0,14.0,62,0.00,,,0.00,255.000000,,2013-02-16 18:42:00,
2013-02-16 13:52:00,48.0,36.0,-100.00,NNW,330,6.0,14.0,62,0.00,,,0.00,255.000000,,2013-02-16 18:52:00,
2013-02-16 14:02:00,48.0,36.0,-100.00,NNW,330,6.0,14.0,62,0.00,,,0.00,255.000000,,2013-02-16 19:02:00,
2013-02-16 14:32:00,42.0,38.0,-100.00,NW,307,5.0,16.0,86,0.00,,,0.00,61.000000,,2013-02-16 19:32:00,
2013-02-16 14:42:00,42.0,38.0,-100.00,NW,307,5.0,16.0,86,0.00,,,0.00,61.000000,,2013-02-16 19:42:00,
2013-02-16 14:52:00,42.0,38.0,-100.00,NW,307,5.0,16.0,86,0.00,,,0.00,61.000000,,2013-02-16 19:52:00,
2013-02-16 15:01:00,42.0,38.0,-100.00,NW,307,5.0,16.0,86,0.00,,,0.00,61.000000,,2013-02-16 20:01:00,
2013-02-16 15:32:00,38.0,37.0,-100.00,NW,316,4.0,11.0,95,0.04,,,0.04,45.000000,,2013-02-16 20:32:00,
2013-02-16 15:42:00,38.0,37.0,-100.00,NW,316,4.0,11.0,95,0.04,,,0.04,45.000000,,2013-02-16 20:42:00,
2013-02-16 15:52:00,38.0,37.0,-100.00,NW,316,4.0,11.0,95,0.04,,,0.04,45.000000,,2013-02-16 20:52:00,
2013-02-16 16:02:00,38.0,37.0,-100.00,NW,316,4.0,11.0,95,0.04,,,0.04,45.000000,,2013-02-16 21:02:00,
2013-02-16 16:32:00,38.0,37.0,-100.00,ESE,111,3.0,10.0,96,0.02,,,0.06,63.000000,,2013-02-16 21:32:00,
2013-02-16 16:42:00,38.0,37.0,-100.00,ESE,111,3.0,10.0,96,0.02,,,0.06,63.000000,,2013-02-16 21:42:00,
2013-02-16 16:52:00,38.0,37.0,-100.00,ESE,111,3.0,10.0,96,0.02,,,0.06,63.000000,,2013-02-16 21:52:00,
2013-02-16 17:01:00,38.0,37.0,-100.00,ESE,111,3.0,10.0,96,0.02,,,0.06,63.000000,,2013-02-16 22:01:00,
2013-02-16 17:32:00,40.0,38.0,-100.00,NNW,328,2.0,5.0,92,0.00,,,0.06,112.000000,,2013-02-16 22:32:00,
2013-02-16 17:42:00,40.0,38.0,-100.00,NNW,328,2.0,5.0,92,0.00,,,0.06,112.000000,,2013-02-16 22:42:00,
2013-02-16 17:52:00,40.0,38.0,-100.00,NNW,328,2.0,5.0,92,0.00,,,0.06,112.000000,,2013-02-16 22:52:00,
2013-02-16 18:02:00,40.0,38.0,-100.00,NNW,328,2.0,5.0,92,0.00,,,0.06,112.000000,,2013-02-16 23:02:00,
2013-02-16 18:32:00,40.0,38.0,-100.00,WSW,254,2.0,9.0,93,0.00,,,0.06,32.000000,,2013-02-16 23:32:00,
2013-02-16 18:42:00,40.0,38.0,-100.00,WSW,254,2.0,9.0,93,0.00,,,0.06,32.000000,,2013-02-16 23:42:00,
2013-02-16 18:52:00,40.0,38.0,-100.00,WSW,254,2.0,9.0,93,0.00,,,0.06,32.000000,,2013-02-16 23:52:00,
2013-02-16 19:02:00,40.0,38.0,-100.00,WSW,254,2.0,9.0,93,0.00,,,0.06,32.000000,,2013-02-17 00:02:00,
2013-02-16 19:22:00,36.0,35.0,-100.00,SSW,206,1.0,4.0,97,0.00,,,0.06,0.000000,,2013-02-17 00:22:00,
2013-02-16 19:32:00,36.0,35.0,-100.00,SSW,206,1.0,4.0,97,0.00,,,0.06,0.000000,,2013-02-17 00:32:00,
2013-02-16 19:42:00,36.0,35.0,-100.00,SSW,206,1.0,4.0,97,0.00,,,0.06,0.000000,,2013-02-17 00:42:00,
2013-02-16 19:52:00,36.0,35.0,-100.00,SSW,206,1.0,4.0,97,0.00,,,0.06,0.000000,,2013-02-17 00:52:00,
2013-02-16 20:01:00,36.0,35.0,-100.00,SSW,206,1.0,4.0,97,0.00,,,0.06,0.000000,,2013-02-17 01:01:00,
2013-02-16 20:32:00,35.0,35.0,-100.00,North,351,3.0,6.0,99,0.00,,,0.06,0.000000,,2013-02-17 01:32:00,
2013-02-16 20:42:00,35.0,35.0,-100.00,North,351,3.0,6.0,99,0.00,,,0.06,0.000000,,2013-02-17 01:42:00,
2013-02-16 20:52:00,35.0,35.0,-100.00,North,351,3.0,6.0,99,0.00,,,0.06,0.000000,,2013-02-17 01:52:00,
2013-02-16 21:01:00,35.0,35.0,-100.00,North,351,3.0,6.0,99,0.00,,,0.06,0.000000,,2013-02-17 02:01:00,
2013-02-16 21:32:00,37.0,34.0,-100.00,NW,316,6.0,16.0,87,0.00,,,-99.99,0.000000,,2013-02-17 02:32:00,
2013-02-16 21:42:00,37.0,34.0,-100.00,NW,316,6.0,16.0,87,0.00,,,-99.99,0.000000,,2013-02-17 02:42:00,
2013-02-16 21:52:00,37.0,34.0,-100.00,NW,316,6.0,16.0,87,0.00,,,-99.99,0.000000,,2013-02-17 02:52:00,
2013-02-16 22:02:00,37.0,34.0,-100.00,NW,316,6.0,16.0,87,0.00,,,-99.99,0.000000,,2013-02-17 03:02:00,
2013-02-16 22:21:00,36.0,31.0,-100.00,NW,326,6.0,12.0,83,0.00,,,0.06,0.000000,,2013-02-17 03:21:00,
2013-02-16 22:32:00,36.0,31.0,-100.00,NW,326,6.0,12.0,83,0.00,,,0.06,0.000000,,2013-02-17 03:32:00,
2013-02-16 22:42:00,36.0,31.0,-100.00,NW,326,6.0,12.0,83,0.00,,,0.06,0.000000,,2013-02-17 03:42:00,
2013-02-16 22:52:00,36.0,31.0,-100.00,NW,326,6.0,12.0,83,0.00,,,0.06,0.000000,,2013-02-17 03:52:00,
2013-02-16 23:01:00,36.0,31.0,-100.00,NW,326,6.0,12.0,83,0.00,,,0.06,0.000000,,2013-02-17 04:01:00,
2013-02-16 23:32:00,35.0,29.0,-100.00,NW,324,5.0,16.0,79,0.00,,,0.06,0.000000,,2013-02-17 04:32:00,
2013-02-16 23:42:00,35.0,29.0,-100.00,NW,324,5.0,16.0,79,0.00,,,0.06,0.000000,,2013-02-17 04:42:00,
2013-02-16 23:52:00,35.0,29.0,-100.00,NW,324,5.0,16.0,79,0.00,,,0.06,0.000000,,2013-02-17 04:52:00,